Time;durP1;ratioP1;P1;durP2;ratioP2;P2;SDS_P1;SDS_P2;PMS_P1;PMS_P2;Temp;Humidity;BMP_temperature;BMP_pressure;BME280_temperature;BME280_humidity;BME280_pressure;Samples;Min_cycle;Max_cycle;Signal;HPM_P1;HPM_P2
2023/05/18 00:02:25;;;;;;;;;;;20.50;74.90;;;;;;5101220;27;42954;-79
2023/05/18 00:04:50;;;;;;;;;;;20.40;78.30;;;;;;5095639;27;43988;-80
2023/05/18 00:07:16;;;;;;;;;;;20.40;76.40;;;;;;5091810;27;42909;-80
2023/05/18 00:09:41;;;;;;;;;;;20.40;76.60;;;;;;5068552;28;44537;-80
2023/05/18 00:12:08;;;;;;;;;;;20.40;77.80;;;;;;5086409;27;42971;-80
2023/05/18 00:14:34;;;;;;;;;;;20.40;78.50;;;;;;5087193;27;42835;-80
2023/05/18 00:17:02;;;;;;;;;;;20.40;78.30;;;;;;5097168;27;42975;-80
2023/05/18 00:19:28;;;;;;;;;;;19.90;76.30;;;;;;5099229;27;42954;-80
2023/05/18 00:21:54;;;;;;;;;;;20.50;77.00;;;;;;5087603;27;42982;-80
2023/05/18 00:24:20;;;;;;;;;;;20.80;75.90;;;;;;5106676;27;43290;-79
2023/05/18 00:26:47;;;;;;;;;;;20.50;78.50;;;;;;5099088;27;42943;-80
2023/05/18 00:29:12;;;;;;;;;;;20.50;76.30;;;;;;5087570;27;43675;-79
2023/05/18 00:31:38;;;;;;;;;;;20.40;77.00;;;;;;5093377;27;42882;-80
2023/05/18 00:34:05;;;;;;;;;;;20.50;76.50;;;;;;5094069;27;42858;-80
2023/05/18 00:36:31;;;;;;;;;;;20.30;76.90;;;;;;5103266;27;42941;-79
2023/05/18 00:38:57;;;;;;;;;;;20.40;76.80;;;;;;5097482;27;43556;-80
2023/05/18 00:41:24;;;;;;;;;;;20.40;78.20;;;;;;5095228;27;42857;-80
2023/05/18 00:43:50;;;;;;;;;;;20.50;78.10;;;;;;5089936;27;42997;-80
2023/05/18 00:46:15;;;;;;;;;;;20.20;74.30;;;;;;5100504;27;43202;-80
2023/05/18 00:48:41;;;;;;;;;;;20.30;80.40;;;;;;5105897;27;43864;-80
2023/05/18 00:51:07;;;;;;;;;;;20.40;77.00;;;;;;5083425;27;43352;-80
2023/05/18 00:53:32;;;;;;;;;;;20.00;79.30;;;;;;5097261;27;43220;-80
2023/05/18 00:55:58;;;;;;;;;;;20.40;77.10;;;;;;5099473;27;43312;-80
2023/05/18 00:58:25;;;;;;;;;;;20.50;77.10;;;;;;5076695;27;43843;-80
2023/05/18 01:00:51;;;;;;;;;;;20.50;77.10;;;;;;5103152;27;43028;-81
2023/05/18 01:03:19;;;;;;;;;;;20.40;76.30;;;;;;5095296;27;43763;-79
2023/05/18 01:05:48;;;;;;;;;;;20.30;78.50;;;;;;5103727;27;42727;-80
2023/05/18 01:08:15;;;;;;;;;;;20.40;77.50;;;;;;5085821;27;44445;-80
2023/05/18 01:10:42;;;;;;;;;;;20.40;78.20;;;;;;5092648;27;42956;-80
2023/05/18 01:13:21;;;;;;;;;;;20.60;76.50;;;;;;5077746;28;44712;-80
2023/05/18 01:15:51;;;;;;;;;;;20.40;74.20;;;;;;5086308;27;42966;-80
2023/05/18 01:18:42;;;;;;;;;;;20.60;78.70;;;;;;5096992;27;44095;-80
2023/05/18 01:21:18;;;;;;;;;;;20.30;77.60;;;;;;5100883;27;43157;-80
2023/05/18 01:23:51;;;;;;;;;;;20.40;77.30;;;;;;5092391;27;42907;-79
2023/05/18 01:26:23;;;;;;;;;;;20.40;74.70;;;;;;5092286;27;43886;-79
2023/05/18 01:28:50;;;;;;;;;;;20.40;78.60;;;;;;5114490;27;43138;-80
2023/05/18 01:31:15;;;;;;;;;;;20.50;80.40;;;;;;5100079;27;42985;-80
2023/05/18 01:33:41;;;;;;;;;;;20.20;77.20;;;;;;5103583;27;42891;-81
2023/05/18 01:36:07;;;;;;;;;;;20.30;79.20;;;;;;5107135;27;42886;-80
2023/05/18 01:38:32;;;;;;;;;;;20.50;78.60;;;;;;5104842;27;43838;-80
2023/05/18 01:41:11;;;;;;;;;;;20.40;77.30;;;;;;5085376;27;44182;-80
2023/05/18 01:43:41;;;;;;;;;;;20.30;75.50;;;;;;5092413;27;43940;-81
2023/05/18 01:46:36;;;;;;;;;;;20.40;78.80;;;;;;5117694;27;42927;-80
2023/05/18 01:49:11;;;;;;;;;;;20.30;79.60;;;;;;5000040;27;43718;-80
2023/05/18 01:51:41;;;;;;;;;;;20.20;79.00;;;;;;5092164;27;43171;-80
2023/05/18 01:54:07;;;;;;;;;;;20.40;81.70;;;;;;5094495;27;43045;-80
2023/05/18 01:56:33;;;;;;;;;;;20.30;81.60;;;;;;5105070;27;42945;-81
2023/05/18 01:58:59;;;;;;;;;;;20.40;78.90;;;;;;5091546;27;43336;-80
2023/05/18 02:01:25;;;;;;;;;;;20.30;77.80;;;;;;5104433;27;42992;-80
2023/05/18 02:03:50;;;;;;;;;;;20.40;79.30;;;;;;5104520;27;42978;-80
2023/05/18 02:06:16;;;;;;;;;;;20.20;82.00;;;;;;5091861;27;43110;-80
2023/05/18 02:08:42;;;;;;;;;;;20.30;82.60;;;;;;5097306;27;43508;-80
2023/05/18 02:11:07;;;;;;;;;;;20.20;81.00;;;;;;5080668;27;42798;-80
2023/05/18 02:13:33;;;;;;;;;;;20.40;78.10;;;;;;5085343;27;43594;-80
2023/05/18 02:15:58;;;;;;;;;;;20.40;77.50;;;;;;5099475;27;42940;-80
2023/05/18 02:18:26;;;;;;;;;;;20.30;77.10;;;;;;5104573;27;43084;-80
2023/05/18 02:20:58;;;;;;;;;;;20.30;75.20;;;;;;5102930;27;43019;-80
2023/05/18 02:23:24;;;;;;;;;;;20.10;74.10;;;;;;5091688;27;43132;-81
2023/05/18 02:25:50;;;;;;;;;;;20.30;75.60;;;;;;5089394;27;42991;-80
2023/05/18 02:28:15;;;;;;;;;;;20.30;73.70;;;;;;5084555;27;43565;-80
2023/05/18 02:30:42;;;;;;;;;;;20.30;75.40;;;;;;5086859;27;43124;-80
2023/05/18 02:33:07;;;;;;;;;;;20.20;75.10;;;;;;5096181;27;44397;-79
2023/05/18 02:35:33;;;;;;;;;;;20.50;75.70;;;;;;5085305;27;42966;-80
2023/05/18 02:37:59;;;;;;;;;;;20.30;76.40;;;;;;5108341;27;43714;-81
2023/05/18 02:40:24;;;;;;;;;;;20.40;75.70;;;;;;5097593;27;43096;-80
2023/05/18 02:42:50;;;;;;;;;;;20.40;74.80;;;;;;5092654;27;43346;-80
2023/05/18 02:45:16;;;;;;;;;;;20.30;74.90;;;;;;5104590;27;43016;-80
2023/05/18 02:47:42;;;;;;;;;;;20.30;75.70;;;;;;5104586;27;42751;-80
2023/05/18 02:50:08;;;;;;;;;;;20.50;73.60;;;;;;5089607;27;43138;-80
2023/05/18 02:52:34;;;;;;;;;;;20.30;75.30;;;;;;5099263;27;43685;-80
2023/05/18 02:54:59;;;;;;;;;;;20.20;75.10;;;;;;5089956;27;42833;-80
2023/05/18 02:57:25;;;;;;;;;;;20.40;76.90;;;;;;5084593;27;43146;-80
2023/05/18 02:59:51;;;;;;;;;;;20.10;74.80;;;;;;5092401;27;42970;-80
2023/05/18 03:02:16;;;;;;;;;;;20.20;75.40;;;;;;5078023;27;43715;-80
2023/05/18 03:04:42;;;;;;;;;;;20.40;76.40;;;;;;5099655;27;42924;-80
2023/05/18 03:07:09;;;;;;;;;;;20.40;74.60;;;;;;5097276;27;43449;-80
2023/05/18 03:09:35;;;;;;;;;;;20.30;76.90;;;;;;5101783;27;43653;-80
2023/05/18 03:12:00;;;;;;;;;;;19.90;74.60;;;;;;5095098;27;43258;-80
2023/05/18 03:14:26;;;;;;;;;;;20.30;74.00;;;;;;5097970;27;43211;-80
2023/05/18 03:16:53;;;;;;;;;;;20.60;76.60;;;;;;5089495;27;43067;-80
2023/05/18 03:19:19;;;;;;;;;;;20.30;76.50;;;;;;5090282;27;43036;-80
2023/05/18 03:21:44;;;;;;;;;;;20.40;75.60;;;;;;5073339;27;44466;-80
2023/05/18 03:24:13;;;;;;;;;;;20.10;74.00;;;;;;5091225;27;42862;-80
2023/05/18 03:26:40;;;;;;;;;;;20.30;76.30;;;;;;5086992;27;43432;-81
2023/05/18 03:29:06;;;;;;;;;;;20.20;75.70;;;;;;5088451;27;43407;-80
2023/05/18 03:31:31;;;;;;;;;;;20.40;76.50;;;;;;5085499;27;43648;-80
2023/05/18 03:33:57;;;;;;;;;;;20.40;77.70;;;;;;5088242;27;42816;-80
2023/05/18 03:36:24;;;;;;;;;;;20.30;77.90;;;;;;5090881;27;42995;-81
2023/05/18 03:38:50;;;;;;;;;;;20.20;75.40;;;;;;5087583;27;42945;-80
2023/05/18 03:41:15;;;;;;;;;;;20.30;74.20;;;;;;5097373;27;43735;-81
2023/05/18 03:43:41;;;;;;;;;;;20.20;74.90;;;;;;5099161;27;42988;-80
2023/05/18 03:46:06;;;;;;;;;;;20.10;75.50;;;;;;5092416;27;42987;-86
2023/05/18 03:48:32;;;;;;;;;;;20.20;75.70;;;;;;5089209;27;43036;-87
2023/05/18 03:50:57;;;;;;;;;;;20.20;75.00;;;;;;5101358;27;43109;-80
2023/05/18 03:53:23;;;;;;;;;;;20.20;76.00;;;;;;5102138;27;42999;-86
2023/05/18 03:55:48;;;;;;;;;;;20.20;75.70;;;;;;5101761;27;43740;-84
2023/05/18 03:58:14;;;;;;;;;;;20.00;75.70;;;;;;5088118;27;42982;-80
2023/05/18 04:00:41;;;;;;;;;;;20.20;75.60;;;;;;5089520;27;42906;-80
2023/05/18 04:03:11;;;;;;;;;;;20.20;76.50;;;;;;5075359;27;42978;-79
2023/05/18 04:05:36;;;;;;;;;;;20.10;75.30;;;;;;5100028;27;43038;-80
2023/05/18 04:08:02;;;;;;;;;;;20.10;76.20;;;;;;5080489;27;43060;-78
2023/05/18 04:10:27;;;;;;;;;;;19.90;75.80;;;;;;5086162;27;43528;-79
2023/05/18 04:12:53;;;;;;;;;;;19.80;75.70;;;;;;5097161;27;43045;-77
2023/05/18 04:15:18;;;;;;;;;;;19.70;76.50;;;;;;5098726;27;42961;-78
2023/05/18 04:17:44;;;;;;;;;;;19.80;77.00;;;;;;5100688;27;43198;-79
2023/05/18 04:20:13;;;;;;;;;;;19.90;76.40;;;;;;5091348;27;43557;-79
2023/05/18 04:22:42;;;;;;;;;;;19.70;75.10;;;;;;5088742;27;43064;-79
2023/05/18 04:25:09;;;;;;;;;;;19.80;77.20;;;;;;5094632;27;43104;-79
2023/05/18 04:27:35;;;;;;;;;;;19.60;75.90;;;;;;5099256;27;43104;-80
2023/05/18 04:30:00;;;;;;;;;;;19.80;77.50;;;;;;5084579;27;42753;-80
2023/05/18 04:32:29;;;;;;;;;;;19.80;77.20;;;;;;5089919;27;43099;-81
2023/05/18 04:34:57;;;;;;;;;;;19.70;78.30;;;;;;5093850;27;43665;-81
2023/05/18 04:37:23;;;;;;;;;;;19.70;76.20;;;;;;5102328;27;43082;-81
2023/05/18 04:39:48;;;;;;;;;;;19.90;74.80;;;;;;5089869;27;42935;-82
2023/05/18 04:42:17;;;;;;;;;;;19.90;76.80;;;;;;5089489;27;42968;-81
2023/05/18 04:44:43;;;;;;;;;;;19.80;76.70;;;;;;5094513;27;43322;-82
2023/05/18 04:47:08;;;;;;;;;;;19.80;75.50;;;;;;5101573;27;42996;-80
2023/05/18 04:49:34;;;;;;;;;;;19.70;75.90;;;;;;5092973;27;42912;-80
2023/05/18 04:51:59;;;;;;;;;;;19.90;77.90;;;;;;5087609;27;42963;-80
2023/05/18 04:54:27;;;;;;;;;;;19.90;76.80;;;;;;5097054;27;43641;-83
2023/05/18 04:56:52;;;;;;;;;;;19.90;75.80;;;;;;5091809;27;43176;-91
2023/05/18 04:59:18;;;;;;;;;;;20.00;76.40;;;;;;5099312;27;43540;-83
2023/05/18 05:01:44;;;;;;;;;;;20.10;69.50;;;;;;5102428;27;43057;-81
2023/05/18 05:04:09;;;;;;;;;;;19.90;70.70;;;;;;5101698;27;42931;-82
2023/05/18 05:06:35;;;;;;;;;;;20.10;69.20;;;;;;5094547;27;43063;-82
2023/05/18 05:09:01;;;;;;;;;;;20.10;70.90;;;;;;5095783;27;43662;-83
2023/05/18 05:11:26;;;;;;;;;;;20.20;72.40;;;;;;5095962;27;42986;-83
2023/05/18 05:13:52;;;;;;;;;;;19.90;71.90;;;;;;5104965;27;43168;-85
2023/05/18 05:16:17;;;;;;;;;;;20.00;71.80;;;;;;5092806;27;43026;-82
2023/05/18 05:18:43;;;;;;;;;;;20.00;71.30;;;;;;5095854;27;43413;-88
2023/05/18 05:21:08;;;;;;;;;;;19.90;71.70;;;;;;5102446;27;42885;-88
2023/05/18 05:23:34;;;;;;;;;;;20.00;71.40;;;;;;5087797;27;43564;-87
2023/05/18 05:25:59;;;;;;;;;;;20.10;72.00;;;;;;5087522;27;42895;-88
2023/05/18 05:28:25;;;;;;;;;;;20.20;69.30;;;;;;5096852;27;43125;-86
2023/05/18 05:30:50;;;;;;;;;;;19.10;70.80;;;;;;5103782;27;43426;-86
2023/05/18 05:33:16;;;;;;;;;;;20.20;70.60;;;;;;5085460;27;43041;-83
2023/05/18 05:35:42;;;;;;;;;;;20.10;70.90;;;;;;5098583;27;43103;-91
2023/05/18 05:38:07;;;;;;;;;;;20.00;71.00;;;;;;5107446;27;43924;-91
2023/05/18 05:40:33;;;;;;;;;;;20.10;69.60;;;;;;5098876;27;42908;-92
2023/05/18 05:42:58;;;;;;;;;;;20.10;69.70;;;;;;5101501;27;43284;-90
2023/05/18 05:45:27;;;;;;;;;;;20.10;69.00;;;;;;5095782;27;42991;-93
2023/05/18 05:47:52;;;;;;;;;;;20.10;69.40;;;;;;5076220;27;43797;-92
2023/05/18 05:50:18;;;;;;;;;;;20.20;75.70;;;;;;5088997;27;43090;-91
2023/05/18 05:52:43;;;;;;;;;;;20.20;77.90;;;;;;5089464;27;42989;-86
2023/05/18 05:55:09;;;;;;;;;;;20.20;69.60;;;;;;5097792;27;43759;-88
2023/05/18 05:57:35;;;;;;;;;;;20.30;71.30;;;;;;5084636;27;43634;-87
2023/05/18 06:00:01;;;;;;;;;;;20.00;69.90;;;;;;5090164;27;43205;-84
2023/05/18 06:02:27;;;;;;;;;;;20.20;68.60;;;;;;5094856;27;43081;-86
2023/05/18 06:04:52;;;;;;;;;;;20.10;73.80;;;;;;5099241;27;42977;-85
2023/05/18 06:07:18;;;;;;;;;;;20.10;69.90;;;;;;5104879;27;42931;-87
2023/05/18 06:09:43;;;;;;;;;;;20.10;69.00;;;;;;5101616;27;42918;-84
2023/05/18 06:12:09;;;;;;;;;;;20.20;70.00;;;;;;5087614;27;43097;-85
2023/05/18 06:14:35;;;;;;;;;;;20.30;68.40;;;;;;5090225;27;43006;-86
2023/05/18 06:17:00;;;;;;;;;;;20.20;69.20;;;;;;5096134;27;43637;-85
2023/05/18 06:19:25;;;;;;;;;;;20.20;77.20;;;;;;5098449;27;42925;-84
2023/05/18 06:21:51;;;;;;;;;;;20.10;75.80;;;;;;5087473;27;43596;-86
2023/05/18 06:24:16;;;;;;;;;;;20.00;77.20;;;;;;5086904;27;42993;-86
2023/05/18 06:26:42;;;;;;;;;;;20.10;78.50;;;;;;5091426;27;42998;-84
2023/05/18 06:29:07;;;;;;;;;;;20.00;78.40;;;;;;5098722;27;43022;-86
2023/05/18 06:31:33;;;;;;;;;;;20.20;78.80;;;;;;5096618;27;42985;-86
2023/05/18 06:33:59;;;;;;;;;;;20.10;77.10;;;;;;5094913;27;42992;-86
2023/05/18 06:36:24;;;;;;;;;;;19.90;77.80;;;;;;5102599;27;42954;-87
2023/05/18 06:38:50;;;;;;;;;;;20.20;77.10;;;;;;5095564;27;43214;-87
2023/05/18 06:41:16;;;;;;;;;;;20.20;77.20;;;;;;5067641;27;45366;-86
2023/05/18 06:43:41;;;;;;;;;;;20.30;77.40;;;;;;5098817;27;43016;-85
2023/05/18 06:46:07;;;;;;;;;;;20.10;78.10;;;;;;5086108;27;43820;-85
2023/05/18 06:48:32;;;;;;;;;;;20.20;76.80;;;;;;5100996;27;43466;-85
2023/05/18 06:50:58;;;;;;;;;;;20.20;76.70;;;;;;5098055;27;43267;-86
2023/05/18 06:53:23;;;;;;;;;;;20.20;77.80;;;;;;5101311;27;43516;-85
2023/05/18 06:55:51;;;;;;;;;;;20.10;77.20;;;;;;5093860;27;43920;-85
2023/05/18 06:58:17;;;;;;;;;;;20.10;79.40;;;;;;5102498;27;42795;-87
2023/05/18 07:00:42;;;;;;;;;;;20.20;71.20;;;;;;5085720;27;43780;-87
2023/05/18 07:03:08;;;;;;;;;;;20.10;73.30;;;;;;5100235;27;42961;-86
2023/05/18 07:05:36;;;;;;;;;;;20.20;77.30;;;;;;5096866;27;42973;-86
2023/05/18 07:08:03;;;;;;;;;;;20.20;75.40;;;;;;5086617;27;42966;-85
2023/05/18 07:10:29;;;;;;;;;;;20.30;78.00;;;;;;5086114;27;43098;-86
2023/05/18 07:12:55;;;;;;;;;;;20.00;78.30;;;;;;5094180;27;43022;-86
2023/05/18 07:15:20;;;;;;;;;;;20.30;78.40;;;;;;5093879;27;44685;-86
2023/05/18 07:17:46;;;;;;;;;;;20.10;78.30;;;;;;5103888;27;43019;-85
2023/05/18 07:20:12;;;;;;;;;;;20.20;78.20;;;;;;5096246;27;43032;-87
2023/05/18 07:22:37;;;;;;;;;;;20.10;78.70;;;;;;5096081;27;42926;-86
2023/05/18 07:25:03;;;;;;;;;;;20.10;78.50;;;;;;5088987;27;43002;-84
2023/05/18 07:27:28;;;;;;;;;;;20.20;78.70;;;;;;5099278;27;43021;-84
2023/05/18 07:29:54;;;;;;;;;;;20.20;78.90;;;;;;5088758;27;42970;-86
2023/05/18 07:32:20;;;;;;;;;;;20.30;79.10;;;;;;5098409;27;43235;-86
2023/05/18 07:34:46;;;;;;;;;;;20.20;80.20;;;;;;5096328;27;43496;-86
2023/05/18 07:37:12;;;;;;;;;;;20.30;80.00;;;;;;5113102;27;43735;-87
2023/05/18 07:39:37;;;;;;;;;;;20.20;79.00;;;;;;5095888;27;44029;-87
2023/05/18 07:42:03;;;;;;;;;;;20.30;79.50;;;;;;5101505;27;43432;-81
2023/05/18 07:44:28;;;;;;;;;;;20.40;79.10;;;;;;5084311;27;42972;-86
2023/05/18 07:46:54;;;;;;;;;;;20.30;79.10;;;;;;5094409;27;43138;-85
2023/05/18 07:49:22;;;;;;;;;;;20.30;79.10;;;;;;5066253;28;43766;-86
2023/05/18 07:51:47;;;;;;;;;;;20.30;78.90;;;;;;5084315;27;42974;-86
2023/05/18 07:54:13;;;;;;;;;;;20.30;79.50;;;;;;5093343;27;43580;-83
2023/05/18 07:56:39;;;;;;;;;;;20.30;79.40;;;;;;5072214;27;42959;-85
2023/05/18 07:59:05;;;;;;;;;;;20.30;79.30;;;;;;5085216;27;43208;-86
2023/05/18 08:01:31;;;;;;;;;;;20.30;79.70;;;;;;5088808;27;43174;-85
2023/05/18 08:03:56;;;;;;;;;;;20.20;80.10;;;;;;5084531;27;42803;-86
2023/05/18 08:06:22;;;;;;;;;;;20.20;80.30;;;;;;5084781;27;43112;-84
2023/05/18 08:08:48;;;;;;;;;;;20.30;80.00;;;;;;5084567;27;43029;-85
2023/05/18 08:11:13;;;;;;;;;;;20.30;79.60;;;;;;5097205;27;42921;-85
2023/05/18 08:13:39;;;;;;;;;;;20.30;79.80;;;;;;5084544;27;42908;-86
2023/05/18 08:16:05;;;;;;;;;;;20.30;79.10;;;;;;5100099;27;43075;-85
2023/05/18 08:18:30;;;;;;;;;;;20.20;79.60;;;;;;5104631;27;43498;-84
2023/05/18 08:20:56;;;;;;;;;;;20.30;79.40;;;;;;5100571;27;42905;-85
2023/05/18 08:23:23;;;;;;;;;;;20.40;78.10;;;;;;5071929;28;42970;-86
2023/05/18 08:25:48;;;;;;;;;;;20.30;79.40;;;;;;5091567;27;42981;-84
2023/05/18 08:28:14;;;;;;;;;;;20.30;78.50;;;;;;5096362;27;42938;-86
2023/05/18 08:30:40;;;;;;;;;;;20.30;78.70;;;;;;5092447;27;42879;-86
2023/05/18 08:33:05;;;;;;;;;;;20.40;78.00;;;;;;5107163;27;43140;-86
2023/05/18 08:35:31;;;;;;;;;;;20.20;79.20;;;;;;5105829;27;43032;-83
2023/05/18 08:37:57;;;;;;;;;;;20.30;77.90;;;;;;5095758;27;44629;-86
2023/05/18 08:40:24;;;;;;;;;;;20.30;78.10;;;;;;5092816;27;42971;-86
2023/05/18 08:42:49;;;;;;;;;;;20.20;78.70;;;;;;5086691;27;43600;-85
2023/05/18 08:45:22;;;;;;;;;;;20.20;78.70;;;;;;5087076;27;43026;-86
2023/05/18 08:47:54;;;;;;;;;;;20.20;76.90;;;;;;5097073;27;43417;-85
2023/05/18 08:50:20;;;;;;;;;;;20.30;77.00;;;;;;5090547;27;42968;-86
2023/05/18 08:52:46;;;;;;;;;;;20.20;78.40;;;;;;5087318;27;43059;-86
2023/05/18 08:55:13;;;;;;;;;;;20.30;78.20;;;;;;5086987;27;43128;-86
2023/05/18 08:57:41;;;;;;;;;;;20.40;78.50;;;;;;5086428;27;42993;-85
2023/05/18 09:00:08;;;;;;;;;;;20.30;77.90;;;;;;5101235;27;42947;-86
2023/05/18 09:02:35;;;;;;;;;;;20.40;78.30;;;;;;5098613;27;43889;-87
2023/05/18 09:05:01;;;;;;;;;;;20.30;78.10;;;;;;5089216;27;43017;-86
2023/05/18 09:07:27;;;;;;;;;;;20.30;77.60;;;;;;5094508;27;42930;-87
2023/05/18 09:09:53;;;;;;;;;;;20.30;77.20;;;;;;5087848;27;42978;-85
2023/05/18 09:12:21;;;;;;;;;;;20.30;76.90;;;;;;5093037;27;43637;-84
2023/05/18 09:14:47;;;;;;;;;;;20.40;76.20;;;;;;5096375;27;42963;-84
2023/05/18 09:17:12;;;;;;;;;;;20.30;77.90;;;;;;5092752;27;43656;-84
2023/05/18 09:19:38;;;;;;;;;;;20.30;77.80;;;;;;5088145;27;42886;-84
2023/05/18 09:22:04;;;;;;;;;;;20.40;77.60;;;;;;5095139;27;43527;-83
2023/05/18 09:24:29;;;;;;;;;;;20.20;78.50;;;;;;5088001;27;43013;-84
2023/05/18 09:26:55;;;;;;;;;;;20.20;78.30;;;;;;5089707;27;43060;-85
2023/05/18 09:29:22;;;;;;;;;;;20.20;77.50;;;;;;5092799;27;42952;-84
2023/05/18 09:31:49;;;;;;;;;;;20.30;77.60;;;;;;5097541;27;43362;-93
2023/05/18 09:34:15;;;;;;;;;;;20.30;75.10;;;;;;5091109;27;43605;-85
2023/05/18 09:36:45;;;;;;;;;;;20.30;76.60;;;;;;5104173;27;43048;-94
2023/05/18 09:39:11;;;;;;;;;;;20.10;77.70;;;;;;5098088;27;43007;-90
2023/05/18 09:41:38;;;;;;;;;;;20.40;76.90;;;;;;5094755;27;42840;-85
2023/05/18 09:44:08;;;;;;;;;;;20.30;76.40;;;;;;5089922;27;43171;-87
2023/05/18 09:46:39;;;;;;;;;;;20.40;76.40;;;;;;5091301;27;43884;-87
2023/05/18 09:49:06;;;;;;;;;;;20.30;76.30;;;;;;5101207;27;43787;-86
2023/05/18 09:51:35;;;;;;;;;;;20.20;76.70;;;;;;5105930;27;43098;-87
2023/05/18 09:54:03;;;;;;;;;;;20.40;76.00;;;;;;5095309;27;43051;-84
2023/05/18 09:56:30;;;;;;;;;;;20.50;77.80;;;;;;5082289;27;43831;-88
2023/05/18 09:58:56;;;;;;;;;;;20.30;79.00;;;;;;5092233;27;42987;-87
2023/05/18 10:01:22;;;;;;;;;;;20.30;77.50;;;;;;5101469;27;43574;-82
2023/05/18 10:03:48;;;;;;;;;;;20.30;77.50;;;;;;5098329;27;42868;-81
2023/05/18 10:06:16;;;;;;;;;;;20.40;78.10;;;;;;5104133;27;43129;-80
2023/05/18 10:08:41;;;;;;;;;;;20.20;78.10;;;;;;5097977;27;43117;-81
2023/05/18 10:11:07;;;;;;;;;;;20.40;78.40;;;;;;5096086;27;43030;-83
2023/05/18 10:13:33;;;;;;;;;;;20.40;77.80;;;;;;5090412;27;43409;-86
2023/05/18 10:16:00;;;;;;;;;;;20.10;77.90;;;;;;5094759;27;42993;-86
2023/05/18 10:18:27;;;;;;;;;;;20.30;77.80;;;;;;5103072;27;43049;-84
2023/05/18 10:20:53;;;;;;;;;;;20.40;79.00;;;;;;5104229;27;44578;-86
2023/05/18 10:23:19;;;;;;;;;;;20.30;78.50;;;;;;5104525;27;44477;-81
2023/05/18 10:25:46;;;;;;;;;;;20.40;77.30;;;;;;5094260;27;43490;-86
2023/05/18 10:28:15;;;;;;;;;;;20.40;77.70;;;;;;5098001;27;42985;-85
2023/05/18 10:30:41;;;;;;;;;;;20.50;78.80;;;;;;5088518;27;43603;-78
2023/05/18 10:33:07;;;;;;;;;;;20.60;78.20;;;;;;5105464;27;42917;-79
2023/05/18 10:35:34;;;;;;;;;;;20.40;77.90;;;;;;5097103;27;43087;-87
2023/05/18 10:38:00;;;;;;;;;;;20.10;75.80;;;;;;5112410;27;43943;-87
2023/05/18 10:40:27;;;;;;;;;;;20.40;77.90;;;;;;5098213;27;43603;-78
2023/05/18 10:42:55;;;;;;;;;;;20.50;78.60;;;;;;5093401;27;42877;-86
2023/05/18 10:45:21;;;;;;;;;;;20.40;78.20;;;;;;5096218;27;43401;-83
2023/05/18 10:47:46;;;;;;;;;;;20.50;78.90;;;;;;5101177;27;43090;-86
2023/05/18 10:50:13;;;;;;;;;;;20.40;79.00;;;;;;5102713;27;42860;-79
2023/05/18 10:52:40;;;;;;;;;;;20.40;79.80;;;;;;5089755;27;43036;-79
2023/05/18 10:55:07;;;;;;;;;;;20.40;78.40;;;;;;5088890;27;42973;-81
2023/05/18 10:57:34;;;;;;;;;;;20.50;78.70;;;;;;5105304;27;43322;-88
2023/05/18 10:59:59;;;;;;;;;;;20.40;78.20;;;;;;5093481;27;44243;-79
2023/05/18 11:02:26;;;;;;;;;;;20.30;78.90;;;;;;5089403;27;43090;-83
2023/05/18 11:04:52;;;;;;;;;;;20.40;78.60;;;;;;5090231;27;42872;-86
2023/05/18 11:07:19;;;;;;;;;;;20.40;78.10;;;;;;5091050;27;42903;-89
2023/05/18 11:09:47;;;;;;;;;;;20.40;77.80;;;;;;5092406;27;43919;-83
2023/05/18 11:12:13;;;;;;;;;;;20.40;77.20;;;;;;5091258;27;42838;-89
2023/05/18 11:14:49;;;;;;;;;;;20.50;78.00;;;;;;5095760;27;43117;-79
2023/05/18 11:17:25;;;;;;;;;;;20.50;77.00;;;;;;5087347;27;42894;-89
2023/05/18 11:20:03;;;;;;;;;;;20.40;75.90;;;;;;5089726;27;43547;-89
2023/05/18 11:22:41;;;;;;;;;;;20.30;76.00;;;;;;5092846;27;59911;-89
2023/05/18 11:25:29;;;;;;;;;;;20.40;76.40;;;;;;5088863;27;42997;-89
2023/05/18 11:28:04;;;;;;;;;;;20.40;76.80;;;;;;5098128;27;42956;-89
2023/05/18 11:30:32;;;;;;;;;;;20.40;76.30;;;;;;5091184;27;43093;-89
2023/05/18 11:33:07;;;;;;;;;;;20.60;77.60;;;;;;5092146;27;43158;-89
2023/05/18 11:35:36;;;;;;;;;;;20.40;76.70;;;;;;5094861;27;43789;-90
2023/05/18 11:38:07;;;;;;;;;;;20.40;76.10;;;;;;5108529;27;42996;-90
2023/05/18 11:40:49;;;;;;;;;;;20.30;76.80;;;;;;5069355;27;45184;-89
2023/05/18 11:43:22;;;;;;;;;;;20.30;77.20;;;;;;5085384;27;42951;-79
2023/05/18 11:45:54;;;;;;;;;;;20.30;77.70;;;;;;5084501;27;43633;-88
2023/05/18 11:48:24;;;;;;;;;;;20.40;77.80;;;;;;5099380;27;43132;-87
2023/05/18 11:50:53;;;;;;;;;;;20.40;78.50;;;;;;5084266;27;42929;-89
2023/05/18 11:53:21;;;;;;;;;;;20.50;76.70;;;;;;5065466;27;43003;-90
2023/05/18 11:55:50;;;;;;;;;;;20.40;78.00;;;;;;5083114;27;43707;-88
2023/05/18 11:58:19;;;;;;;;;;;20.20;77.20;;;;;;5079493;27;43265;-83
2023/05/18 12:00:46;;;;;;;;;;;20.50;77.90;;;;;;5085246;27;42828;-90
2023/05/18 12:03:11;;;;;;;;;;;20.50;75.40;;;;;;5085274;27;43017;-89
2023/05/18 12:05:38;;;;;;;;;;;20.40;78.90;;;;;;5085235;27;43149;-89
2023/05/18 12:08:04;;;;;;;;;;;20.40;78.70;;;;;;5094741;27;43583;-89
2023/05/18 12:10:29;;;;;;;;;;;20.50;77.90;;;;;;5094913;27;43341;-90
2023/05/18 12:12:55;;;;;;;;;;;20.50;77.90;;;;;;5084912;27;42879;-89
2023/05/18 12:15:22;;;;;;;;;;;20.50;77.60;;;;;;5084604;27;44247;-89
2023/05/18 12:17:47;;;;;;;;;;;20.40;76.40;;;;;;5096419;27;42793;-79
2023/05/18 12:20:17;;;;;;;;;;;20.50;76.70;;;;;;5088850;27;43665;-89
2023/05/18 12:22:44;;;;;;;;;;;20.40;75.70;;;;;;5084959;27;43167;-89
2023/05/18 12:25:09;;;;;;;;;;;20.50;77.90;;;;;;5091376;27;42981;-89
2023/05/18 12:27:42;;;;;;;;;;;19.90;77.10;;;;;;5087022;27;42967;-92
2023/05/18 12:30:12;;;;;;;;;;;20.40;76.70;;;;;;5073836;27;43712;-92
2023/05/18 12:32:38;;;;;;;;;;;20.50;77.50;;;;;;5091190;27;43708;-94
2023/05/18 12:35:07;;;;;;;;;;;20.40;76.50;;;;;;5106059;27;43095;-83
2023/05/18 12:37:33;;;;;;;;;;;20.50;75.40;;;;;;5107509;27;42481;-94
2023/05/18 12:39:59;;;;;;;;;;;20.50;77.30;;;;;;5099696;27;43068;-92
2023/05/18 12:42:25;;;;;;;;;;;20.50;77.00;;;;;;5090283;27;43403;-86
2023/05/18 12:44:50;;;;;;;;;;;20.50;77.50;;;;;;5092254;27;43525;-90
2023/05/18 12:47:16;;;;;;;;;;;20.60;77.50;;;;;;5093475;27;43021;-92
2023/05/18 12:49:48;;;;;;;;;;;20.50;77.10;;;;;;5100064;27;43118;-91
2023/05/18 12:52:14;;;;;;;;;;;20.50;76.70;;;;;;5092652;27;43111;-92
2023/05/18 12:54:49;;;;;;;;;;;20.60;77.00;;;;;;5100459;27;43900;-89
2023/05/18 12:57:15;;;;;;;;;;;20.40;76.10;;;;;;5098282;27;43019;-77
2023/05/18 12:59:47;;;;;;;;;;;20.50;77.10;;;;;;5091779;27;42988;-77
2023/05/18 13:02:28;;;;;;;;;;;20.40;77.00;;;;;;5091229;27;43059;-77
2023/05/18 13:05:20;;;;;;;;;;;20.40;77.20;;;;;;5089379;27;42970;-78
2023/05/18 13:07:45;;;;;;;;;;;20.40;77.00;;;;;;5091394;27;43026;-76
2023/05/18 13:10:12;;;;;;;;;;;20.50;78.60;;;;;;5096901;27;43010;-77
2023/05/18 13:12:39;;;;;;;;;;;20.80;80.70;;;;;;5080109;27;42996;-78
2023/05/18 13:15:11;;;;;;;;;;;20.40;77.80;;;;;;5092468;27;42952;-75
2023/05/18 13:17:37;;;;;;;;;;;20.50;77.00;;;;;;5095040;27;42984;-76
2023/05/18 13:20:04;;;;;;;;;;;20.40;78.40;;;;;;5092370;27;42963;-77
2023/05/18 13:22:29;;;;;;;;;;;20.50;79.50;;;;;;5088860;27;43138;-77
2023/05/18 13:24:55;;;;;;;;;;;20.60;79.60;;;;;;5089963;27;43431;-78
2023/05/18 13:27:20;;;;;;;;;;;20.70;80.20;;;;;;5093354;27;42936;-76
2023/05/18 13:29:50;;;;;;;;;;;20.50;79.30;;;;;;5094355;27;42954;-78
2023/05/18 13:32:15;;;;;;;;;;;20.40;80.30;;;;;;5095901;27;43093;-78
2023/05/18 13:34:41;;;;;;;;;;;20.60;80.00;;;;;;5088099;27;42954;-74
2023/05/18 13:37:07;;;;;;;;;;;20.60;79.70;;;;;;5080614;27;43185;-77
2023/05/18 13:39:32;;;;;;;;;;;20.50;79.30;;;;;;5091442;27;43801;-80
2023/05/18 13:41:58;;;;;;;;;;;20.70;80.10;;;;;;5090091;27;43472;-77
2023/05/18 13:44:24;;;;;;;;;;;20.60;80.50;;;;;;5095140;27;42960;-79
2023/05/18 13:46:50;;;;;;;;;;;20.70;80.00;;;;;;5103324;27;43084;-77
2023/05/18 13:49:15;;;;;;;;;;;20.50;79.00;;;;;;5102970;27;43938;-79
2023/05/18 13:51:41;;;;;;;;;;;20.60;79.60;;;;;;5098361;27;43287;-76
2023/05/18 13:54:06;;;;;;;;;;;20.60;78.60;;;;;;5092404;27;42916;-78
2023/05/18 13:56:32;;;;;;;;;;;20.70;80.10;;;;;;5099750;27;43072;-78
2023/05/18 13:58:57;;;;;;;;;;;20.60;80.20;;;;;;5098440;27;43159;-79
2023/05/18 14:01:23;;;;;;;;;;;20.70;80.40;;;;;;5096567;27;43005;-77
2023/05/18 14:03:49;;;;;;;;;;;20.50;79.80;;;;;;5088841;27;43105;-79
2023/05/18 14:06:17;;;;;;;;;;;20.60;79.20;;;;;;5099018;27;42933;-78
2023/05/18 14:08:43;;;;;;;;;;;20.60;80.50;;;;;;5094633;27;44731;-81
2023/05/18 14:11:08;;;;;;;;;;;20.60;79.50;;;;;;5101917;27;42916;-80
2023/05/18 14:13:33;;;;;;;;;;;20.60;77.70;;;;;;5096562;27;43056;-79
2023/05/18 14:15:59;;;;;;;;;;;20.50;77.90;;;;;;5103520;27;42973;-86